sensor_id;sensor_type;location;lat;lon;timestamp;P1;durP1;ratioP1;P2;durP2;ratioP2
75651;SDS011;64248;43.602;39.724;2022-10-19T00:01:50;9.70;;;4.35;;
75651;SDS011;64248;43.602;39.724;2022-10-19T00:04:16;17.30;;;4.13;;
75651;SDS011;64248;43.602;39.724;2022-10-19T00:06:42;5.40;;;2.95;;
75651;SDS011;64248;43.602;39.724;2022-10-19T00:09:10;6.72;;;2.70;;
75651;SDS011;64248;43.602;39.724;2022-10-19T00:11:40;8.65;;;3.40;;
75651;SDS011;64248;43.602;39.724;2022-10-19T00:14:09;5.47;;;3.03;;
75651;SDS011;64248;43.602;39.724;2022-10-19T00:16:38;10.68;;;3.40;;
75651;SDS011;64248;43.602;39.724;2022-10-19T00:19:10;5.70;;;3.30;;
75651;SDS011;64248;43.602;39.724;2022-10-19T00:21:38;8.27;;;3.30;;
75651;SDS011;64248;43.602;39.724;2022-10-19T00:24:05;8.43;;;3.17;;
75651;SDS011;64248;43.602;39.724;2022-10-19T00:26:31;6.50;;;2.97;;
75651;SDS011;64248;43.602;39.724;2022-10-19T00:28:58;7.88;;;3.72;;
75651;SDS011;64248;43.602;39.724;2022-10-19T00:31:24;5.55;;;2.80;;
75651;SDS011;64248;43.602;39.724;2022-10-19T00:33:51;5.93;;;3.00;;
75651;SDS011;64248;43.602;39.724;2022-10-19T00:38:46;4.65;;;2.78;;
75651;SDS011;64248;43.602;39.724;2022-10-19T00:41:13;8.40;;;2.67;;
75651;SDS011;64248;43.602;39.724;2022-10-19T00:44:03;5.72;;;2.90;;
75651;SDS011;64248;43.602;39.724;2022-10-19T00:46:35;4.85;;;2.58;;
75651;SDS011;64248;43.602;39.724;2022-10-19T00:49:08;5.03;;;2.70;;
75651;SDS011;64248;43.602;39.724;2022-10-19T00:51:42;7.57;;;3.17;;
75651;SDS011;64248;43.602;39.724;2022-10-19T00:54:14;7.90;;;3.35;;
75651;SDS011;64248;43.602;39.724;2022-10-19T00:56:41;4.75;;;2.78;;
75651;SDS011;64248;43.602;39.724;2022-10-19T00:59:11;5.15;;;2.60;;
75651;SDS011;64248;43.602;39.724;2022-10-19T01:01:39;5.35;;;2.67;;
75651;SDS011;64248;43.602;39.724;2022-10-19T01:04:06;5.22;;;2.70;;
75651;SDS011;64248;43.602;39.724;2022-10-19T01:06:34;5.72;;;2.72;;
75651;SDS011;64248;43.602;39.724;2022-10-19T01:09:00;6.05;;;2.78;;
75651;SDS011;64248;43.602;39.724;2022-10-19T01:11:30;5.82;;;2.85;;
75651;SDS011;64248;43.602;39.724;2022-10-19T01:25:43;6.35;;;3.00;;
75651;SDS011;64248;43.602;39.724;2022-10-19T01:31:01;4.68;;;2.38;;
75651;SDS011;64248;43.602;39.724;2022-10-19T01:47:16;6.97;;;2.33;;
75651;SDS011;64248;43.602;39.724;2022-10-19T01:49:52;5.55;;;2.72;;
75651;SDS011;64248;43.602;39.724;2022-10-19T01:52:23;7.32;;;2.78;;
75651;SDS011;64248;43.602;39.724;2022-10-19T01:54:52;8.75;;;2.42;;
75651;SDS011;64248;43.602;39.724;2022-10-19T01:57:38;6.07;;;2.40;;
75651;SDS011;64248;43.602;39.724;2022-10-19T02:00:08;6.78;;;2.50;;
75651;SDS011;64248;43.602;39.724;2022-10-19T02:02:40;9.88;;;2.67;;
75651;SDS011;64248;43.602;39.724;2022-10-19T02:05:10;5.22;;;2.53;;
75651;SDS011;64248;43.602;39.724;2022-10-19T02:07:37;5.43;;;2.38;;
75651;SDS011;64248;43.602;39.724;2022-10-19T02:10:06;6.30;;;2.67;;
75651;SDS011;64248;43.602;39.724;2022-10-19T02:12:32;5.80;;;2.97;;
75651;SDS011;64248;43.602;39.724;2022-10-19T02:15:06;8.93;;;2.90;;
75651;SDS011;64248;43.602;39.724;2022-10-19T02:17:38;5.63;;;2.90;;
75651;SDS011;64248;43.602;39.724;2022-10-19T02:20:10;6.15;;;2.78;;
75651;SDS011;64248;43.602;39.724;2022-10-19T02:22:36;5.00;;;2.72;;
75651;SDS011;64248;43.602;39.724;2022-10-19T02:25:02;5.22;;;2.53;;
75651;SDS011;64248;43.602;39.724;2022-10-19T02:27:28;7.80;;;2.55;;
75651;SDS011;64248;43.602;39.724;2022-10-19T02:29:54;6.75;;;2.72;;
75651;SDS011;64248;43.602;39.724;2022-10-19T02:32:20;6.97;;;2.75;;
75651;SDS011;64248;43.602;39.724;2022-10-19T02:34:46;5.63;;;2.33;;
75651;SDS011;64248;43.602;39.724;2022-10-19T02:37:12;5.75;;;3.22;;
75651;SDS011;64248;43.602;39.724;2022-10-19T02:39:38;8.13;;;2.83;;
75651;SDS011;64248;43.602;39.724;2022-10-19T02:42:18;5.85;;;2.83;;
75651;SDS011;64248;43.602;39.724;2022-10-19T02:47:36;6.25;;;2.42;;
75651;SDS011;64248;43.602;39.724;2022-10-19T02:50:08;8.32;;;2.78;;
75651;SDS011;64248;43.602;39.724;2022-10-19T02:52:36;4.80;;;2.33;;
75651;SDS011;64248;43.602;39.724;2022-10-19T02:55:03;7.18;;;2.70;;
75651;SDS011;64248;43.602;39.724;2022-10-19T02:57:30;5.82;;;2.15;;
75651;SDS011;64248;43.602;39.724;2022-10-19T02:59:56;6.03;;;2.58;;
75651;SDS011;64248;43.602;39.724;2022-10-19T03:02:22;9.27;;;3.13;;
75651;SDS011;64248;43.602;39.724;2022-10-19T03:04:49;4.60;;;2.58;;
75651;SDS011;64248;43.602;39.724;2022-10-19T03:07:16;5.93;;;2.67;;
75651;SDS011;64248;43.602;39.724;2022-10-19T03:09:43;5.57;;;2.88;;
75651;SDS011;64248;43.602;39.724;2022-10-19T03:12:09;7.00;;;2.10;;
75651;SDS011;64248;43.602;39.724;2022-10-19T03:14:36;7.15;;;2.10;;
75651;SDS011;64248;43.602;39.724;2022-10-19T03:17:02;5.45;;;2.30;;
75651;SDS011;64248;43.602;39.724;2022-10-19T03:19:29;8.55;;;2.72;;
75651;SDS011;64248;43.602;39.724;2022-10-19T03:21:55;6.28;;;2.17;;
75651;SDS011;64248;43.602;39.724;2022-10-19T03:24:21;5.82;;;2.15;;
75651;SDS011;64248;43.602;39.724;2022-10-19T03:26:47;6.65;;;2.45;;
75651;SDS011;64248;43.602;39.724;2022-10-19T03:29:13;5.60;;;2.65;;
75651;SDS011;64248;43.602;39.724;2022-10-19T03:31:39;4.80;;;2.65;;
75651;SDS011;64248;43.602;39.724;2022-10-19T03:34:05;4.38;;;2.58;;
75651;SDS011;64248;43.602;39.724;2022-10-19T03:36:32;4.45;;;2.10;;
75651;SDS011;64248;43.602;39.724;2022-10-19T03:39:03;8.57;;;2.90;;
75651;SDS011;64248;43.602;39.724;2022-10-19T03:41:33;4.75;;;2.13;;
75651;SDS011;64248;43.602;39.724;2022-10-19T03:44:00;5.20;;;2.55;;
75651;SDS011;64248;43.602;39.724;2022-10-19T03:46:26;6.90;;;2.40;;
75651;SDS011;64248;43.602;39.724;2022-10-19T03:48:52;5.68;;;2.50;;
75651;SDS011;64248;43.602;39.724;2022-10-19T03:51:19;6.43;;;2.45;;
75651;SDS011;64248;43.602;39.724;2022-10-19T03:53:50;14.00;;;2.50;;
75651;SDS011;64248;43.602;39.724;2022-10-19T03:56:22;5.07;;;1.67;;
75651;SDS011;64248;43.602;39.724;2022-10-19T03:58:49;5.55;;;2.63;;
75651;SDS011;64248;43.602;39.724;2022-10-19T04:01:24;4.75;;;2.65;;
75651;SDS011;64248;43.602;39.724;2022-10-19T04:04:02;7.30;;;2.60;;
75651;SDS011;64248;43.602;39.724;2022-10-19T04:06:31;4.57;;;2.20;;
75651;SDS011;64248;43.602;39.724;2022-10-19T04:09:00;5.90;;;2.45;;
75651;SDS011;64248;43.602;39.724;2022-10-19T04:11:27;7.72;;;2.05;;
75651;SDS011;64248;43.602;39.724;2022-10-19T04:13:54;6.47;;;2.35;;
75651;SDS011;64248;43.602;39.724;2022-10-19T04:16:22;6.80;;;2.63;;
75651;SDS011;64248;43.602;39.724;2022-10-19T04:18:49;5.75;;;2.20;;
75651;SDS011;64248;43.602;39.724;2022-10-19T04:21:20;4.82;;;2.35;;
75651;SDS011;64248;43.602;39.724;2022-10-19T04:23:48;5.90;;;2.65;;
75651;SDS011;64248;43.602;39.724;2022-10-19T04:26:15;5.68;;;2.15;;
75651;SDS011;64248;43.602;39.724;2022-10-19T04:28:42;5.55;;;2.70;;
75651;SDS011;64248;43.602;39.724;2022-10-19T04:31:08;4.82;;;2.45;;
75651;SDS011;64248;43.602;39.724;2022-10-19T04:33:35;5.95;;;2.75;;
75651;SDS011;64248;43.602;39.724;2022-10-19T04:36:02;6.53;;;2.50;;
75651;SDS011;64248;43.602;39.724;2022-10-19T04:38:30;6.88;;;2.75;;
75651;SDS011;64248;43.602;39.724;2022-10-19T04:41:00;31.80;;;10.02;;
75651;SDS011;64248;43.602;39.724;2022-10-19T04:43:33;16.20;;;6.18;;
75651;SDS011;64248;43.602;39.724;2022-10-19T04:46:07;5.60;;;2.70;;
75651;SDS011;64248;43.602;39.724;2022-10-19T04:48:35;6.20;;;2.42;;
75651;SDS011;64248;43.602;39.724;2022-10-19T04:51:02;3.97;;;2.17;;
75651;SDS011;64248;43.602;39.724;2022-10-19T04:53:28;6.55;;;3.30;;
75651;SDS011;64248;43.602;39.724;2022-10-19T04:55:55;10.55;;;5.07;;
75651;SDS011;64248;43.602;39.724;2022-10-19T04:58:21;7.53;;;2.90;;
75651;SDS011;64248;43.602;39.724;2022-10-19T05:00:47;5.22;;;2.22;;
75651;SDS011;64248;43.602;39.724;2022-10-19T05:03:13;6.10;;;2.08;;
75651;SDS011;64248;43.602;39.724;2022-10-19T05:05:39;9.70;;;3.83;;
75651;SDS011;64248;43.602;39.724;2022-10-19T05:08:05;8.52;;;2.90;;
75651;SDS011;64248;43.602;39.724;2022-10-19T05:10:31;5.78;;;2.75;;
75651;SDS011;64248;43.602;39.724;2022-10-19T05:12:59;5.10;;;2.03;;
75651;SDS011;64248;43.602;39.724;2022-10-19T05:15:26;6.35;;;2.50;;
75651;SDS011;64248;43.602;39.724;2022-10-19T05:17:53;9.38;;;2.17;;
75651;SDS011;64248;43.602;39.724;2022-10-19T05:20:19;4.30;;;2.03;;
75651;SDS011;64248;43.602;39.724;2022-10-19T05:22:45;6.63;;;2.20;;
75651;SDS011;64248;43.602;39.724;2022-10-19T05:25:11;4.60;;;1.88;;
75651;SDS011;64248;43.602;39.724;2022-10-19T05:27:37;9.02;;;1.95;;
75651;SDS011;64248;43.602;39.724;2022-10-19T05:30:04;6.20;;;1.65;;
75651;SDS011;64248;43.602;39.724;2022-10-19T05:32:31;8.02;;;3.40;;
75651;SDS011;64248;43.602;39.724;2022-10-19T05:34:57;6.55;;;2.03;;
75651;SDS011;64248;43.602;39.724;2022-10-19T05:37:22;5.80;;;1.92;;
75651;SDS011;64248;43.602;39.724;2022-10-19T05:39:50;4.03;;;1.70;;
75651;SDS011;64248;43.602;39.724;2022-10-19T05:42:16;5.32;;;2.05;;
75651;SDS011;64248;43.602;39.724;2022-10-19T05:44:42;3.70;;;1.80;;
75651;SDS011;64248;43.602;39.724;2022-10-19T05:47:08;4.50;;;2.10;;
75651;SDS011;64248;43.602;39.724;2022-10-19T05:49:34;9.90;;;2.55;;
75651;SDS011;64248;43.602;39.724;2022-10-19T05:52:00;5.22;;;1.75;;
75651;SDS011;64248;43.602;39.724;2022-10-19T05:54:25;8.52;;;2.33;;
75651;SDS011;64248;43.602;39.724;2022-10-19T05:56:51;6.28;;;3.47;;
75651;SDS011;64248;43.602;39.724;2022-10-19T05:59:18;5.55;;;2.15;;
75651;SDS011;64248;43.602;39.724;2022-10-19T06:01:45;4.68;;;1.85;;
75651;SDS011;64248;43.602;39.724;2022-10-19T06:04:12;4.75;;;1.63;;
75651;SDS011;64248;43.602;39.724;2022-10-19T06:06:39;3.20;;;1.20;;
75651;SDS011;64248;43.602;39.724;2022-10-19T06:09:09;5.25;;;1.67;;
75651;SDS011;64248;43.602;39.724;2022-10-19T06:11:36;5.90;;;1.83;;
75651;SDS011;64248;43.602;39.724;2022-10-19T06:14:04;5.75;;;2.10;;
75651;SDS011;64248;43.602;39.724;2022-10-19T06:16:33;4.47;;;1.98;;
75651;SDS011;64248;43.602;39.724;2022-10-19T06:18:59;5.05;;;1.55;;
75651;SDS011;64248;43.602;39.724;2022-10-19T06:21:26;5.50;;;1.70;;
75651;SDS011;64248;43.602;39.724;2022-10-19T06:23:55;3.97;;;1.75;;
75651;SDS011;64248;43.602;39.724;2022-10-19T06:26:23;5.78;;;1.83;;
75651;SDS011;64248;43.602;39.724;2022-10-19T06:28:50;5.57;;;1.90;;
75651;SDS011;64248;43.602;39.724;2022-10-19T06:31:19;8.30;;;2.28;;
75651;SDS011;64248;43.602;39.724;2022-10-19T06:33:45;7.95;;;3.95;;
75651;SDS011;64248;43.602;39.724;2022-10-19T06:36:14;9.10;;;2.90;;
75651;SDS011;64248;43.602;39.724;2022-10-19T06:38:45;6.03;;;1.70;;
75651;SDS011;64248;43.602;39.724;2022-10-19T06:41:12;3.60;;;2.10;;
75651;SDS011;64248;43.602;39.724;2022-10-19T06:43:38;9.18;;;2.50;;
75651;SDS011;64248;43.602;39.724;2022-10-19T06:46:11;5.00;;;1.92;;
75651;SDS011;64248;43.602;39.724;2022-10-19T06:48:57;7.35;;;2.40;;
75651;SDS011;64248;43.602;39.724;2022-10-19T06:51:26;9.00;;;3.10;;
75651;SDS011;64248;43.602;39.724;2022-10-19T06:53:54;8.38;;;2.35;;
75651;SDS011;64248;43.602;39.724;2022-10-19T06:56:20;5.53;;;2.08;;
75651;SDS011;64248;43.602;39.724;2022-10-19T06:58:48;4.95;;;2.40;;
75651;SDS011;64248;43.602;39.724;2022-10-19T07:01:14;5.07;;;2.55;;
75651;SDS011;64248;43.602;39.724;2022-10-19T07:03:40;5.65;;;1.95;;
75651;SDS011;64248;43.602;39.724;2022-10-19T07:06:08;9.35;;;4.05;;
75651;SDS011;64248;43.602;39.724;2022-10-19T07:08:36;5.38;;;2.58;;
75651;SDS011;64248;43.602;39.724;2022-10-19T07:11:05;9.73;;;3.38;;
75651;SDS011;64248;43.602;39.724;2022-10-19T07:13:32;4.95;;;2.10;;
75651;SDS011;64248;43.602;39.724;2022-10-19T07:16:03;6.53;;;3.63;;
75651;SDS011;64248;43.602;39.724;2022-10-19T07:18:32;21.58;;;9.57;;
75651;SDS011;64248;43.602;39.724;2022-10-19T07:21:00;10.63;;;5.22;;
75651;SDS011;64248;43.602;39.724;2022-10-19T07:23:28;8.63;;;4.63;;
75651;SDS011;64248;43.602;39.724;2022-10-19T07:25:56;10.32;;;4.28;;
75651;SDS011;64248;43.602;39.724;2022-10-19T07:28:27;14.10;;;6.28;;
75651;SDS011;64248;43.602;39.724;2022-10-19T07:30:54;22.50;;;14.38;;
75651;SDS011;64248;43.602;39.724;2022-10-19T07:33:21;13.38;;;7.80;;
75651;SDS011;64248;43.602;39.724;2022-10-19T07:35:47;14.88;;;5.40;;
75651;SDS011;64248;43.602;39.724;2022-10-19T07:38:13;13.25;;;4.45;;
75651;SDS011;64248;43.602;39.724;2022-10-19T07:40:39;13.13;;;5.88;;
75651;SDS011;64248;43.602;39.724;2022-10-19T07:43:04;13.07;;;5.85;;
75651;SDS011;64248;43.602;39.724;2022-10-19T07:45:30;12.45;;;5.13;;
75651;SDS011;64248;43.602;39.724;2022-10-19T07:47:58;10.13;;;5.00;;
75651;SDS011;64248;43.602;39.724;2022-10-19T07:50:24;5.57;;;2.97;;
75651;SDS011;64248;43.602;39.724;2022-10-19T07:52:52;6.45;;;2.50;;
75651;SDS011;64248;43.602;39.724;2022-10-19T07:55:18;6.50;;;1.95;;
75651;SDS011;64248;43.602;39.724;2022-10-19T07:57:47;5.35;;;2.42;;
75651;SDS011;64248;43.602;39.724;2022-10-19T08:00:15;5.93;;;2.33;;
75651;SDS011;64248;43.602;39.724;2022-10-19T08:02:42;7.25;;;2.83;;
75651;SDS011;64248;43.602;39.724;2022-10-19T08:05:08;8.93;;;5.25;;
75651;SDS011;64248;43.602;39.724;2022-10-19T08:07:35;5.88;;;2.88;;
75651;SDS011;64248;43.602;39.724;2022-10-19T08:10:01;4.45;;;2.03;;
75651;SDS011;64248;43.602;39.724;2022-10-19T08:12:27;3.65;;;2.13;;
75651;SDS011;64248;43.602;39.724;2022-10-19T08:14:53;5.35;;;2.10;;
75651;SDS011;64248;43.602;39.724;2022-10-19T08:17:19;4.75;;;2.30;;
75651;SDS011;64248;43.602;39.724;2022-10-19T08:19:45;6.45;;;1.85;;
75651;SDS011;64248;43.602;39.724;2022-10-19T08:22:11;5.00;;;2.00;;
75651;SDS011;64248;43.602;39.724;2022-10-19T08:24:37;3.50;;;1.73;;
75651;SDS011;64248;43.602;39.724;2022-10-19T08:27:03;5.63;;;1.63;;
75651;SDS011;64248;43.602;39.724;2022-10-19T08:29:29;4.10;;;1.58;;
75651;SDS011;64248;43.602;39.724;2022-10-19T08:31:55;3.22;;;1.88;;
75651;SDS011;64248;43.602;39.724;2022-10-19T08:34:21;4.43;;;1.83;;
75651;SDS011;64248;43.602;39.724;2022-10-19T08:36:47;5.43;;;1.77;;
75651;SDS011;64248;43.602;39.724;2022-10-19T08:39:13;4.00;;;1.70;;
75651;SDS011;64248;43.602;39.724;2022-10-19T08:50:08;4.30;;;1.63;;
75651;SDS011;64248;43.602;39.724;2022-10-19T08:52:42;2.90;;;1.38;;
75651;SDS011;64248;43.602;39.724;2022-10-19T08:55:14;4.57;;;1.40;;
75651;SDS011;64248;43.602;39.724;2022-10-19T09:00:34;3.33;;;1.90;;
75651;SDS011;64248;43.602;39.724;2022-10-19T09:03:09;11.15;;;4.55;;
75651;SDS011;64248;43.602;39.724;2022-10-19T09:08:22;3.10;;;1.75;;
75651;SDS011;64248;43.602;39.724;2022-10-19T09:10:49;4.90;;;2.30;;
75651;SDS011;64248;43.602;39.724;2022-10-19T09:15:50;3.50;;;1.63;;
75651;SDS011;64248;43.602;39.724;2022-10-19T09:20:43;4.60;;;2.67;;
75651;SDS011;64248;43.602;39.724;2022-10-19T09:23:20;4.78;;;2.60;;
75651;SDS011;64248;43.602;39.724;2022-10-19T09:25:53;6.10;;;2.35;;
75651;SDS011;64248;43.602;39.724;2022-10-19T09:31:23;2.80;;;1.40;;
75651;SDS011;64248;43.602;39.724;2022-10-19T09:36:49;4.25;;;2.10;;
75651;SDS011;64248;43.602;39.724;2022-10-19T09:39:18;3.30;;;1.90;;
75651;SDS011;64248;43.602;39.724;2022-10-19T09:41:46;3.70;;;2.55;;
75651;SDS011;64248;43.602;39.724;2022-10-19T09:44:16;3.60;;;1.70;;
75651;SDS011;64248;43.602;39.724;2022-10-19T09:46:46;4.38;;;1.85;;
75651;SDS011;64248;43.602;39.724;2022-10-19T09:49:18;5.63;;;2.22;;
75651;SDS011;64248;43.602;39.724;2022-10-19T09:52:02;7.05;;;2.15;;
75651;SDS011;64248;43.602;39.724;2022-10-19T09:57:02;3.45;;;1.60;;
75651;SDS011;64248;43.602;39.724;2022-10-19T09:59:30;4.10;;;2.30;;
75651;SDS011;64248;43.602;39.724;2022-10-19T10:04:44;2.63;;;1.60;;
75651;SDS011;64248;43.602;39.724;2022-10-19T10:07:23;3.15;;;2.17;;
75651;SDS011;64248;43.602;39.724;2022-10-19T10:09:52;4.13;;;1.60;;
75651;SDS011;64248;43.602;39.724;2022-10-19T10:12:18;3.30;;;1.58;;
75651;SDS011;64248;43.602;39.724;2022-10-19T10:14:46;4.10;;;2.10;;
75651;SDS011;64248;43.602;39.724;2022-10-19T10:17:15;3.10;;;1.58;;
75651;SDS011;64248;43.602;39.724;2022-10-19T10:22:29;3.78;;;1.95;;
75651;SDS011;64248;43.602;39.724;2022-10-19T10:24:57;2.97;;;1.85;;
75651;SDS011;64248;43.602;39.724;2022-10-19T10:27:27;5.50;;;2.05;;
75651;SDS011;64248;43.602;39.724;2022-10-19T10:29:54;5.13;;;2.10;;
75651;SDS011;64248;43.602;39.724;2022-10-19T10:32:20;3.85;;;1.92;;
75651;SDS011;64248;43.602;39.724;2022-10-19T10:34:48;3.58;;;2.13;;
75651;SDS011;64248;43.602;39.724;2022-10-19T10:40:26;3.95;;;2.20;;
75651;SDS011;64248;43.602;39.724;2022-10-19T10:43:00;5.45;;;2.83;;
75651;SDS011;64248;43.602;39.724;2022-10-19T10:45:41;4.03;;;2.30;;
75651;SDS011;64248;43.602;39.724;2022-10-19T10:50:57;4.60;;;2.25;;
75651;SDS011;64248;43.602;39.724;2022-10-19T10:53:33;6.65;;;2.38;;
75651;SDS011;64248;43.602;39.724;2022-10-19T10:55:59;5.05;;;2.10;;
75651;SDS011;64248;43.602;39.724;2022-10-19T10:58:40;3.63;;;2.10;;
75651;SDS011;64248;43.602;39.724;2022-10-19T11:01:18;5.45;;;2.45;;
75651;SDS011;64248;43.602;39.724;2022-10-19T11:03:54;4.93;;;2.30;;
75651;SDS011;64248;43.602;39.724;2022-10-19T11:06:33;5.32;;;2.55;;
75651;SDS011;64248;43.602;39.724;2022-10-19T11:09:10;8.20;;;2.40;;
75651;SDS011;64248;43.602;39.724;2022-10-19T11:11:47;5.40;;;2.47;;
75651;SDS011;64248;43.602;39.724;2022-10-19T11:14:24;6.13;;;2.80;;
75651;SDS011;64248;43.602;39.724;2022-10-19T11:16:55;4.05;;;2.45;;
75651;SDS011;64248;43.602;39.724;2022-10-19T11:19:26;3.97;;;2.17;;
75651;SDS011;64248;43.602;39.724;2022-10-19T11:22:03;5.88;;;2.60;;
75651;SDS011;64248;43.602;39.724;2022-10-19T11:40:39;5.68;;;3.50;;
75651;SDS011;64248;43.602;39.724;2022-10-19T11:46:11;7.38;;;2.50;;
75651;SDS011;64248;43.602;39.724;2022-10-19T11:48:59;5.63;;;3.25;;
75651;SDS011;64248;43.602;39.724;2022-10-19T12:07:30;6.15;;;2.92;;
75651;SDS011;64248;43.602;39.724;2022-10-19T12:15:21;9.65;;;4.40;;
75651;SDS011;64248;43.602;39.724;2022-10-19T12:17:53;5.55;;;2.50;;
75651;SDS011;64248;43.602;39.724;2022-10-19T12:23:10;4.30;;;2.35;;
75651;SDS011;64248;43.602;39.724;2022-10-19T12:26:00;4.88;;;2.92;;
75651;SDS011;64248;43.602;39.724;2022-10-19T12:28:32;6.47;;;2.78;;
75651;SDS011;64248;43.602;39.724;2022-10-19T12:31:00;5.93;;;2.67;;
75651;SDS011;64248;43.602;39.724;2022-10-19T12:36:35;9.27;;;4.13;;
75651;SDS011;64248;43.602;39.724;2022-10-19T12:42:09;7.68;;;3.67;;
75651;SDS011;64248;43.602;39.724;2022-10-19T12:47:20;3.85;;;2.40;;
75651;SDS011;64248;43.602;39.724;2022-10-19T12:49:47;5.50;;;2.42;;
75651;SDS011;64248;43.602;39.724;2022-10-19T12:52:44;4.70;;;2.60;;
75651;SDS011;64248;43.602;39.724;2022-10-19T12:58:00;4.90;;;2.42;;
75651;SDS011;64248;43.602;39.724;2022-10-19T13:00:30;5.85;;;2.40;;
75651;SDS011;64248;43.602;39.724;2022-10-19T13:03:00;3.63;;;2.00;;
75651;SDS011;64248;43.602;39.724;2022-10-19T13:05:57;7.15;;;2.10;;
75651;SDS011;64248;43.602;39.724;2022-10-19T13:08:38;4.90;;;2.10;;
75651;SDS011;64248;43.602;39.724;2022-10-19T13:11:07;5.22;;;2.95;;
75651;SDS011;64248;43.602;39.724;2022-10-19T13:19:00;6.40;;;2.50;;
75651;SDS011;64248;43.602;39.724;2022-10-19T13:21:48;5.28;;;2.38;;
75651;SDS011;64248;43.602;39.724;2022-10-19T13:24:33;5.45;;;2.55;;
75651;SDS011;64248;43.602;39.724;2022-10-19T13:29:27;4.85;;;2.40;;
75651;SDS011;64248;43.602;39.724;2022-10-19T13:33:05;4.80;;;2.42;;
75651;SDS011;64248;43.602;39.724;2022-10-19T13:45:42;5.78;;;3.25;;
75651;SDS011;64248;43.602;39.724;2022-10-19T13:48:14;4.70;;;2.42;;
75651;SDS011;64248;43.602;39.724;2022-10-19T13:56:37;5.63;;;2.92;;
75651;SDS011;64248;43.602;39.724;2022-10-19T13:59:28;4.70;;;2.55;;
75651;SDS011;64248;43.602;39.724;2022-10-19T14:08:12;4.72;;;2.67;;
75651;SDS011;64248;43.602;39.724;2022-10-19T14:13:31;4.93;;;2.40;;
75651;SDS011;64248;43.602;39.724;2022-10-19T14:15:57;5.18;;;2.50;;
75651;SDS011;64248;43.602;39.724;2022-10-19T14:18:34;6.53;;;2.50;;
75651;SDS011;64248;43.602;39.724;2022-10-19T14:21:06;5.18;;;2.20;;
75651;SDS011;64248;43.602;39.724;2022-10-19T14:23:37;4.45;;;2.40;;
75651;SDS011;64248;43.602;39.724;2022-10-19T14:26:16;5.07;;;2.90;;
75651;SDS011;64248;43.602;39.724;2022-10-19T14:28:52;5.45;;;3.15;;
75651;SDS011;64248;43.602;39.724;2022-10-19T14:31:21;9.73;;;4.47;;
75651;SDS011;64248;43.602;39.724;2022-10-19T14:33:50;6.97;;;4.05;;
75651;SDS011;64248;43.602;39.724;2022-10-19T14:36:21;20.58;;;12.25;;
75651;SDS011;64248;43.602;39.724;2022-10-19T14:38:53;6.72;;;3.67;;
75651;SDS011;64248;43.602;39.724;2022-10-19T14:43:52;5.57;;;3.10;;
75651;SDS011;64248;43.602;39.724;2022-10-19T14:46:18;8.00;;;3.90;;
75651;SDS011;64248;43.602;39.724;2022-10-19T14:48:45;11.82;;;7.22;;
75651;SDS011;64248;43.602;39.724;2022-10-19T14:54:06;6.78;;;3.60;;
75651;SDS011;64248;43.602;39.724;2022-10-19T14:56:42;7.78;;;3.92;;
75651;SDS011;64248;43.602;39.724;2022-10-19T15:01:52;11.25;;;4.30;;
75651;SDS011;64248;43.602;39.724;2022-10-19T15:04:24;5.18;;;3.28;;
75651;SDS011;64248;43.602;39.724;2022-10-19T15:06:55;6.82;;;3.05;;
75651;SDS011;64248;43.602;39.724;2022-10-19T15:09:29;7.75;;;5.07;;
75651;SDS011;64248;43.602;39.724;2022-10-19T15:12:02;7.88;;;3.33;;
75651;SDS011;64248;43.602;39.724;2022-10-19T15:14:35;7.20;;;4.05;;
75651;SDS011;64248;43.602;39.724;2022-10-19T15:17:03;7.22;;;3.53;;
75651;SDS011;64248;43.602;39.724;2022-10-19T15:19:44;9.48;;;5.03;;
75651;SDS011;64248;43.602;39.724;2022-10-19T15:22:19;7.45;;;4.43;;
75651;SDS011;64248;43.602;39.724;2022-10-19T15:27:27;10.68;;;4.13;;
75651;SDS011;64248;43.602;39.724;2022-10-19T15:29:59;11.88;;;5.57;;
75651;SDS011;64248;43.602;39.724;2022-10-19T15:32:48;14.45;;;5.93;;
75651;SDS011;64248;43.602;39.724;2022-10-19T15:37:48;10.10;;;5.75;;
75651;SDS011;64248;43.602;39.724;2022-10-19T15:40:22;16.20;;;5.45;;
75651;SDS011;64248;43.602;39.724;2022-10-19T15:42:54;11.73;;;5.38;;
75651;SDS011;64248;43.602;39.724;2022-10-19T15:45:36;13.10;;;5.50;;
75651;SDS011;64248;43.602;39.724;2022-10-19T15:50:39;10.57;;;4.90;;
75651;SDS011;64248;43.602;39.724;2022-10-19T15:53:08;11.18;;;5.15;;
75651;SDS011;64248;43.602;39.724;2022-10-19T15:55:34;12.27;;;5.18;;
75651;SDS011;64248;43.602;39.724;2022-10-19T15:58:00;11.85;;;6.78;;
75651;SDS011;64248;43.602;39.724;2022-10-19T16:00:27;10.30;;;5.55;;
75651;SDS011;64248;43.602;39.724;2022-10-19T16:02:54;11.00;;;6.50;;
75651;SDS011;64248;43.602;39.724;2022-10-19T16:05:20;12.52;;;5.50;;
75651;SDS011;64248;43.602;39.724;2022-10-19T16:07:46;8.68;;;4.30;;
75651;SDS011;64248;43.602;39.724;2022-10-19T16:10:19;9.23;;;5.25;;
75651;SDS011;64248;43.602;39.724;2022-10-19T16:12:47;11.68;;;5.53;;
75651;SDS011;64248;43.602;39.724;2022-10-19T16:15:13;11.43;;;6.18;;
75651;SDS011;64248;43.602;39.724;2022-10-19T16:17:45;13.13;;;5.22;;
75651;SDS011;64248;43.602;39.724;2022-10-19T16:20:23;11.48;;;6.22;;
75651;SDS011;64248;43.602;39.724;2022-10-19T16:22:50;10.48;;;6.72;;
75651;SDS011;64248;43.602;39.724;2022-10-19T16:25:17;16.45;;;5.78;;
75651;SDS011;64248;43.602;39.724;2022-10-19T16:27:43;14.63;;;6.13;;
75651;SDS011;64248;43.602;39.724;2022-10-19T16:30:09;11.13;;;6.30;;
75651;SDS011;64248;43.602;39.724;2022-10-19T16:32:36;13.18;;;5.28;;
75651;SDS011;64248;43.602;39.724;2022-10-19T16:35:04;13.18;;;6.38;;
75651;SDS011;64248;43.602;39.724;2022-10-19T16:37:32;10.63;;;5.78;;
75651;SDS011;64248;43.602;39.724;2022-10-19T16:39:59;11.75;;;5.85;;
75651;SDS011;64248;43.602;39.724;2022-10-19T16:42:25;14.57;;;6.63;;
75651;SDS011;64248;43.602;39.724;2022-10-19T16:44:51;11.93;;;6.57;;
75651;SDS011;64248;43.602;39.724;2022-10-19T16:47:18;15.02;;;7.10;;
75651;SDS011;64248;43.602;39.724;2022-10-19T16:49:44;14.88;;;7.03;;
75651;SDS011;64248;43.602;39.724;2022-10-19T16:52:13;10.80;;;5.78;;
75651;SDS011;64248;43.602;39.724;2022-10-19T16:54:39;20.55;;;6.22;;
75651;SDS011;64248;43.602;39.724;2022-10-19T16:57:05;11.85;;;6.60;;
75651;SDS011;64248;43.602;39.724;2022-10-19T16:59:31;14.30;;;6.28;;
75651;SDS011;64248;43.602;39.724;2022-10-19T17:01:57;13.48;;;6.18;;
75651;SDS011;64248;43.602;39.724;2022-10-19T17:04:23;13.35;;;6.25;;
75651;SDS011;64248;43.602;39.724;2022-10-19T17:06:50;16.55;;;6.88;;
75651;SDS011;64248;43.602;39.724;2022-10-19T17:09:16;14.73;;;5.40;;
75651;SDS011;64248;43.602;39.724;2022-10-19T17:11:42;11.10;;;4.95;;
75651;SDS011;64248;43.602;39.724;2022-10-19T17:14:10;14.25;;;5.88;;
75651;SDS011;64248;43.602;39.724;2022-10-19T17:16:37;9.32;;;5.30;;
75651;SDS011;64248;43.602;39.724;2022-10-19T17:19:04;13.73;;;4.78;;
75651;SDS011;64248;43.602;39.724;2022-10-19T17:21:32;12.88;;;5.53;;
75651;SDS011;64248;43.602;39.724;2022-10-19T17:26:33;8.60;;;4.35;;
75651;SDS011;64248;43.602;39.724;2022-10-19T17:29:04;8.10;;;4.25;;
75651;SDS011;64248;43.602;39.724;2022-10-19T17:31:31;16.13;;;5.60;;
75651;SDS011;64248;43.602;39.724;2022-10-19T17:33:57;8.80;;;5.30;;
75651;SDS011;64248;43.602;39.724;2022-10-19T17:36:26;9.65;;;4.72;;
75651;SDS011;64248;43.602;39.724;2022-10-19T17:38:54;12.70;;;5.00;;
75651;SDS011;64248;43.602;39.724;2022-10-19T17:41:21;9.77;;;4.45;;
75651;SDS011;64248;43.602;39.724;2022-10-19T17:43:49;11.60;;;4.13;;